KNTD/NTD METAR and TAF weather

Enter ICAO airport designator
Station Type Date Time Source
KNTD METAR 2019/04/25 09:57 UTC NOAA

KNTD 250957Z AUTO 04004KT 4SM BR OVC002 13/13 A2997 RMK AO2 VIS 1 3/4 N SLP150 T01330133 $


Station Type Date Time Source
KNTD Decoded METAR 2019/04/25 09:57 UTC NOAA

NAWCWPNS POINT MUGU, CA, CA, United States (KNTD) 34-07N 119-07W 2M
Apr 25, 2019 - 05:57 AM EDT / 2019.04.25 0957 UTC
Wind: from the NE (040 degrees) at 5 MPH (4 KT):0
Visibility: 4 mile(s):0
Sky conditions: overcast
Weather: mist
Temperature: 55.9 F (13.3 C)
Dew Point: 55.9 F (13.3 C)
Relative Humidity: 100%
Pressure (altimeter): 29.97 in. Hg (1014 hPa)
ob: KNTD 250957Z AUTO 04004KT 4SM BR OVC002 13/13 A2997 RMK AO2 VIS 1 3/4 N SLP150 T01330133
cycle: 10

Station Type Date Time Source
KNTD TAF 2019/04/25 07:58 UTC NOAA

TAF KNTD 2507/2607 VRB06KT 4800 BR BKN005 QNH2990INS
TEMPO 2507/2512 1600 BR VV002
FM251200 VRB06KT 3200 BR BKN008 QNH2992INS
TEMPO 2512/2518 0800 BR VV001
BECMG 2518/2520 8000 BR SCT008 BKN012 QNH2994INS
FM252100 23008KT 9999 FEW010 QNH2995INS AUTOMATED SENSOR METWATCH 2507 TIL 2513 T13/2512Z T19/2521Z FS30144

Example: see airport list